sensor_id;sensor_type;location;lat;lon;timestamp;pressure;altitude;pressure_sealevel;temperature;humidity
21547;BME280;41275;51.912;4.388;2023-11-19T00:03:54;100771.69;;;19.98;57.38
21547;BME280;41275;51.912;4.388;2023-11-19T00:09:15;100806.38;;;19.95;57.56
21547;BME280;41275;51.912;4.388;2023-11-19T00:14:40;100795.94;;;19.93;57.52
21547;BME280;41275;51.912;4.388;2023-11-19T00:20:16;100807.31;;;19.85;57.33
21547;BME280;41275;51.912;4.388;2023-11-19T00:25:38;100794.25;;;19.78;57.42
21547;BME280;41275;51.912;4.388;2023-11-19T00:31:00;100803.72;;;19.71;57.29
21547;BME280;41275;51.912;4.388;2023-11-19T00:36:21;100805.84;;;19.74;57.59
21547;BME280;41275;51.912;4.388;2023-11-19T00:41:45;100813.59;;;19.75;57.43
21547;BME280;41275;51.912;4.388;2023-11-19T00:47:08;100787.69;;;19.66;57.32
21547;BME280;41275;51.912;4.388;2023-11-19T00:52:33;100769.75;;;19.61;56.98
21547;BME280;41275;51.912;4.388;2023-11-19T00:57:54;100768.69;;;19.57;57.18
21547;BME280;41275;51.912;4.388;2023-11-19T01:03:17;100764.50;;;19.51;57.09
21547;BME280;41275;51.912;4.388;2023-11-19T01:08:45;100748.47;;;19.46;57.16
21547;BME280;41275;51.912;4.388;2023-11-19T01:14:07;100751.25;;;19.35;57.15
21547;BME280;41275;51.912;4.388;2023-11-19T01:19:30;100754.56;;;19.27;56.94
21547;BME280;41275;51.912;4.388;2023-11-19T01:24:51;100751.75;;;19.13;57.17
21547;BME280;41275;51.912;4.388;2023-11-19T01:30:13;100738.72;;;19.07;56.91
21547;BME280;41275;51.912;4.388;2023-11-19T01:35:35;100752.75;;;18.99;57.14
21547;BME280;41275;51.912;4.388;2023-11-19T01:40:56;100746.84;;;18.97;56.67
21547;BME280;41275;51.912;4.388;2023-11-19T01:46:23;100762.72;;;18.93;56.53
21547;BME280;41275;51.912;4.388;2023-11-19T01:51:45;100737.03;;;18.87;56.56
21547;BME280;41275;51.912;4.388;2023-11-19T01:57:08;100754.53;;;18.79;56.67
21547;BME280;41275;51.912;4.388;2023-11-19T02:02:32;100755.91;;;18.77;56.54
21547;BME280;41275;51.912;4.388;2023-11-19T02:07:54;100775.75;;;18.76;56.41
21547;BME280;41275;51.912;4.388;2023-11-19T02:13:15;100765.06;;;18.65;56.06
21547;BME280;41275;51.912;4.388;2023-11-19T02:18:37;100753.38;;;18.56;56.52
21547;BME280;41275;51.912;4.388;2023-11-19T02:24:00;100762.25;;;18.52;56.43
21547;BME280;41275;51.912;4.388;2023-11-19T02:29:23;100761.47;;;18.46;56.36
21547;BME280;41275;51.912;4.388;2023-11-19T02:34:47;100756.47;;;18.39;56.72
21547;BME280;41275;51.912;4.388;2023-11-19T02:40:12;100752.50;;;18.32;56.48
21547;BME280;41275;51.912;4.388;2023-11-19T02:45:34;100765.91;;;18.27;56.69
21547;BME280;41275;51.912;4.388;2023-11-19T02:50:56;100752.25;;;18.28;56.45
21547;BME280;41275;51.912;4.388;2023-11-19T02:56:19;100753.06;;;18.29;56.36
21547;BME280;41275;51.912;4.388;2023-11-19T03:01:46;100753.09;;;18.24;56.48
21547;BME280;41275;51.912;4.388;2023-11-19T03:07:11;100769.38;;;18.27;56.42
21547;BME280;41275;51.912;4.388;2023-11-19T03:12:34;100763.81;;;18.24;56.17
21547;BME280;41275;51.912;4.388;2023-11-19T03:17:56;100746.41;;;18.21;56.07
21547;BME280;41275;51.912;4.388;2023-11-19T03:23:17;100742.13;;;18.20;55.91
21547;BME280;41275;51.912;4.388;2023-11-19T03:28:39;100737.03;;;18.19;55.74
21547;BME280;41275;51.912;4.388;2023-11-19T03:34:00;100751.00;;;18.15;55.96
21547;BME280;41275;51.912;4.388;2023-11-19T03:39:21;100741.34;;;18.14;55.89
21547;BME280;41275;51.912;4.388;2023-11-19T03:44:46;100753.97;;;18.14;55.88
21547;BME280;41275;51.912;4.388;2023-11-19T03:50:08;100761.50;;;18.07;55.76
21547;BME280;41275;51.912;4.388;2023-11-19T03:55:29;100740.06;;;18.07;55.62
21547;BME280;41275;51.912;4.388;2023-11-19T04:00:52;100758.03;;;18.06;55.48
21547;BME280;41275;51.912;4.388;2023-11-19T04:06:13;100755.09;;;18.03;55.13
21547;BME280;41275;51.912;4.388;2023-11-19T04:11:35;100761.50;;;18.07;55.10
21547;BME280;41275;51.912;4.388;2023-11-19T04:17:01;100760.44;;;18.03;54.82
21547;BME280;41275;51.912;4.388;2023-11-19T04:22:22;100771.41;;;18.06;54.89
21547;BME280;41275;51.912;4.388;2023-11-19T04:27:43;100770.31;;;18.07;54.43
21547;BME280;41275;51.912;4.388;2023-11-19T04:33:06;100786.38;;;18.12;54.19
21547;BME280;41275;51.912;4.388;2023-11-19T04:38:27;100792.00;;;18.16;54.19
21547;BME280;41275;51.912;4.388;2023-11-19T04:43:48;100781.03;;;18.07;54.11
21547;BME280;41275;51.912;4.388;2023-11-19T04:49:10;100789.34;;;18.06;54.27
21547;BME280;41275;51.912;4.388;2023-11-19T04:54:32;100773.88;;;17.98;54.19
21547;BME280;41275;51.912;4.388;2023-11-19T04:59:53;100789.66;;;17.99;54.22
21547;BME280;41275;51.912;4.388;2023-11-19T05:05:16;100778.47;;;17.92;54.24
21547;BME280;41275;51.912;4.388;2023-11-19T05:10:38;100781.16;;;17.92;54.32
21547;BME280;41275;51.912;4.388;2023-11-19T05:16:02;100777.09;;;17.95;54.17
21547;BME280;41275;51.912;4.388;2023-11-19T05:21:24;100789.97;;;17.93;54.33
21547;BME280;41275;51.912;4.388;2023-11-19T05:26:45;100788.66;;;17.90;54.59
21547;BME280;41275;51.912;4.388;2023-11-19T05:32:06;100781.41;;;17.90;54.47
21547;BME280;41275;51.912;4.388;2023-11-19T05:37:28;100791.03;;;17.91;54.41
21547;BME280;41275;51.912;4.388;2023-11-19T05:42:49;100789.72;;;17.89;54.45
21547;BME280;41275;51.912;4.388;2023-11-19T05:48:10;100780.66;;;17.85;54.09
21547;BME280;41275;51.912;4.388;2023-11-19T05:53:31;100778.47;;;17.87;54.30
21547;BME280;41275;51.912;4.388;2023-11-19T05:58:53;100776.09;;;17.85;54.31
21547;BME280;41275;51.912;4.388;2023-11-19T06:04:14;100779.03;;;17.84;53.92
21547;BME280;41275;51.912;4.388;2023-11-19T06:09:37;100775.81;;;17.87;53.88
21547;BME280;41275;51.912;4.388;2023-11-19T06:15:00;100779.03;;;17.89;53.70
21547;BME280;41275;51.912;4.388;2023-11-19T06:20:21;100780.91;;;17.88;53.65
21547;BME280;41275;51.912;4.388;2023-11-19T06:25:42;100773.66;;;17.89;53.60
21547;BME280;41275;51.912;4.388;2023-11-19T06:31:04;100772.63;;;17.85;53.53
21547;BME280;41275;51.912;4.388;2023-11-19T06:36:25;100746.91;;;17.89;53.33
21547;BME280;41275;51.912;4.388;2023-11-19T06:41:47;100796.38;;;17.91;53.28
21547;BME280;41275;51.912;4.388;2023-11-19T06:47:08;100800.94;;;17.91;53.40
21547;BME280;41275;51.912;4.388;2023-11-19T06:52:30;100796.13;;;17.93;53.52
21547;BME280;41275;51.912;4.388;2023-11-19T06:57:51;100819.41;;;17.98;53.35
21547;BME280;41275;51.912;4.388;2023-11-19T07:03:13;100806.19;;;18.11;53.57
21547;BME280;41275;51.912;4.388;2023-11-19T07:08:34;100824.59;;;18.28;53.04
21547;BME280;41275;51.912;4.388;2023-11-19T07:13:55;100814.38;;;18.35;53.29
21547;BME280;41275;51.912;4.388;2023-11-19T07:19:17;100807.72;;;18.28;53.13
21547;BME280;41275;51.912;4.388;2023-11-19T07:24:44;100801.88;;;18.21;53.32
21547;BME280;41275;51.912;4.388;2023-11-19T07:30:06;100812.28;;;18.22;53.58
21547;BME280;41275;51.912;4.388;2023-11-19T07:35:28;100821.53;;;18.45;53.28
21547;BME280;41275;51.912;4.388;2023-11-19T07:40:51;100803.88;;;18.39;53.09
21547;BME280;41275;51.912;4.388;2023-11-19T07:46:13;100813.53;;;18.35;52.85
21547;BME280;41275;51.912;4.388;2023-11-19T07:51:35;100815.66;;;18.43;52.68
21547;BME280;41275;51.912;4.388;2023-11-19T07:56:56;100815.88;;;18.47;52.51
21547;BME280;41275;51.912;4.388;2023-11-19T08:02:18;100812.13;;;18.48;52.26
21547;BME280;41275;51.912;4.388;2023-11-19T08:07:39;100813.91;;;18.57;52.16
21547;BME280;41275;51.912;4.388;2023-11-19T08:13:01;100818.69;;;18.65;51.97
21547;BME280;41275;51.912;4.388;2023-11-19T08:18:22;100822.41;;;18.75;51.38
21547;BME280;41275;51.912;4.388;2023-11-19T08:23:43;100825.84;;;18.80;51.27
21547;BME280;41275;51.912;4.388;2023-11-19T08:29:05;100836.75;;;18.89;51.13
21547;BME280;41275;51.912;4.388;2023-11-19T08:34:26;100832.41;;;18.98;50.99
21547;BME280;41275;51.912;4.388;2023-11-19T08:39:48;100831.72;;;19.11;50.79
21547;BME280;41275;51.912;4.388;2023-11-19T08:45:10;100830.81;;;19.21;50.48
21547;BME280;41275;51.912;4.388;2023-11-19T08:50:31;100824.78;;;19.34;50.58
21547;BME280;41275;51.912;4.388;2023-11-19T08:55:53;100818.81;;;19.43;50.64
21547;BME280;41275;51.912;4.388;2023-11-19T09:01:14;100814.72;;;19.45;50.73
21547;BME280;41275;51.912;4.388;2023-11-19T09:06:36;100815.34;;;19.37;50.68
21547;BME280;41275;51.912;4.388;2023-11-19T09:11:57;100826.44;;;19.30;50.72
21547;BME280;41275;51.912;4.388;2023-11-19T09:17:19;100811.03;;;19.41;50.76
21547;BME280;41275;51.912;4.388;2023-11-19T09:22:45;100801.69;;;19.38;50.77
21547;BME280;41275;51.912;4.388;2023-11-19T09:28:07;100824.00;;;19.34;50.78
21547;BME280;41275;51.912;4.388;2023-11-19T09:33:32;100831.47;;;19.37;50.57
21547;BME280;41275;51.912;4.388;2023-11-19T09:38:54;100814.91;;;19.54;50.19
21547;BME280;41275;51.912;4.388;2023-11-19T09:44:16;100807.22;;;19.71;50.05
21547;BME280;41275;51.912;4.388;2023-11-19T09:49:39;100805.78;;;19.79;49.35
21547;BME280;41275;51.912;4.388;2023-11-19T09:55:01;100820.22;;;19.83;48.99
21547;BME280;41275;51.912;4.388;2023-11-19T10:00:23;100817.84;;;19.81;48.54
21547;BME280;41275;51.912;4.388;2023-11-19T10:05:44;100819.91;;;19.66;48.35
21547;BME280;41275;51.912;4.388;2023-11-19T10:11:09;100825.28;;;19.60;48.44
21547;BME280;41275;51.912;4.388;2023-11-19T10:16:40;100824.69;;;19.69;48.34
21547;BME280;41275;51.912;4.388;2023-11-19T10:22:05;100794.81;;;19.75;48.12
21547;BME280;41275;51.912;4.388;2023-11-19T10:27:29;100805.22;;;19.82;47.90
21547;BME280;41275;51.912;4.388;2023-11-19T10:33:13;100770.31;;;19.82;47.74
21547;BME280;41275;51.912;4.388;2023-11-19T10:38:52;100816.09;;;19.91;47.79
21547;BME280;41275;51.912;4.388;2023-11-19T10:44:31;100802.03;;;19.99;47.95
21547;BME280;41275;51.912;4.388;2023-11-19T10:49:52;100793.09;;;20.03;48.43
21547;BME280;41275;51.912;4.388;2023-11-19T10:55:15;100801.38;;;20.07;48.84
21547;BME280;41275;51.912;4.388;2023-11-19T11:00:47;100802.38;;;20.30;49.27
21547;BME280;41275;51.912;4.388;2023-11-19T11:06:10;100794.56;;;20.52;48.69
21547;BME280;41275;51.912;4.388;2023-11-19T11:11:32;100796.72;;;20.31;48.53
21547;BME280;41275;51.912;4.388;2023-11-19T11:16:56;100800.56;;;20.25;49.20
21547;BME280;41275;51.912;4.388;2023-11-19T11:22:20;100788.72;;;20.07;49.04
21547;BME280;41275;51.912;4.388;2023-11-19T11:28:02;100789.47;;;19.94;49.46
21547;BME280;41275;51.912;4.388;2023-11-19T11:33:59;100780.19;;;20.05;49.21
21547;BME280;41275;51.912;4.388;2023-11-19T11:39:22;100768.78;;;20.14;48.91
21547;BME280;41275;51.912;4.388;2023-11-19T11:50:30;100764.22;;;20.47;46.99
21547;BME280;41275;51.912;4.388;2023-11-19T11:55:57;100768.59;;;20.43;46.65
21547;BME280;41275;51.912;4.388;2023-11-19T12:01:20;100767.41;;;20.68;46.84
21547;BME280;41275;51.912;4.388;2023-11-19T12:06:42;100760.47;;;20.80;45.86
21547;BME280;41275;51.912;4.388;2023-11-19T12:12:23;100765.47;;;21.28;45.99
21547;BME280;41275;51.912;4.388;2023-11-19T12:17:48;100756.97;;;20.94;45.08
21547;BME280;41275;51.912;4.388;2023-11-19T12:23:10;100772.47;;;20.55;45.88
21547;BME280;41275;51.912;4.388;2023-11-19T12:28:31;100776.16;;;20.41;46.19
21547;BME280;41275;51.912;4.388;2023-11-19T12:33:53;100760.81;;;20.41;46.61
21547;BME280;41275;51.912;4.388;2023-11-19T12:39:14;100754.94;;;20.39;46.54
21547;BME280;41275;51.912;4.388;2023-11-19T12:44:36;100756.91;;;20.33;46.49
21547;BME280;41275;51.912;4.388;2023-11-19T12:49:57;100760.53;;;20.24;46.76
21547;BME280;41275;51.912;4.388;2023-11-19T12:55:29;100754.03;;;20.11;47.36
21547;BME280;41275;51.912;4.388;2023-11-19T13:00:59;100740.16;;;20.04;48.21
21547;BME280;41275;51.912;4.388;2023-11-19T13:06:20;100756.41;;;20.31;48.48
21547;BME280;41275;51.912;4.388;2023-11-19T13:11:43;100754.19;;;20.71;48.43
21547;BME280;41275;51.912;4.388;2023-11-19T13:17:06;100743.22;;;20.68;47.94
21547;BME280;41275;51.912;4.388;2023-11-19T13:22:27;100750.81;;;20.93;47.83
21547;BME280;41275;51.912;4.388;2023-11-19T13:27:49;100747.16;;;20.56;47.12
21547;BME280;41275;51.912;4.388;2023-11-19T13:33:10;100743.06;;;20.26;46.84
21547;BME280;41275;51.912;4.388;2023-11-19T13:38:43;100741.38;;;20.11;47.04
21547;BME280;41275;51.912;4.388;2023-11-19T13:44:08;100737.63;;;20.13;47.07
21547;BME280;41275;51.912;4.388;2023-11-19T13:49:29;100717.31;;;20.06;47.15
21547;BME280;41275;51.912;4.388;2023-11-19T13:54:51;100722.19;;;20.04;47.11
21547;BME280;41275;51.912;4.388;2023-11-19T14:00:12;100718.41;;;19.86;47.64
21547;BME280;41275;51.912;4.388;2023-11-19T14:05:34;100704.53;;;19.98;47.79
21547;BME280;41275;51.912;4.388;2023-11-19T14:10:55;100717.25;;;19.93;48.11
21547;BME280;41275;51.912;4.388;2023-11-19T14:16:17;100708.31;;;19.97;48.15
21547;BME280;41275;51.912;4.388;2023-11-19T14:21:38;100709.03;;;20.03;47.81
21547;BME280;41275;51.912;4.388;2023-11-19T14:27:00;100706.63;;;20.20;47.37
21547;BME280;41275;51.912;4.388;2023-11-19T14:32:27;100703.75;;;20.30;46.82
21547;BME280;41275;51.912;4.388;2023-11-19T14:37:48;100708.53;;;20.33;46.69
21547;BME280;41275;51.912;4.388;2023-11-19T14:43:10;100704.72;;;20.21;46.86
21547;BME280;41275;51.912;4.388;2023-11-19T14:48:31;100699.53;;;19.92;47.37
21547;BME280;41275;51.912;4.388;2023-11-19T14:53:52;100698.81;;;19.86;47.70
21547;BME280;41275;51.912;4.388;2023-11-19T14:59:13;100697.06;;;19.76;48.17
21547;BME280;41275;51.912;4.388;2023-11-19T15:04:35;100688.66;;;19.64;48.18
21547;BME280;41275;51.912;4.388;2023-11-19T15:09:56;100681.44;;;19.59;48.88
21547;BME280;41275;51.912;4.388;2023-11-19T15:15:17;100678.84;;;19.54;48.84
21547;BME280;41275;51.912;4.388;2023-11-19T15:20:38;100667.19;;;19.40;49.29
21547;BME280;41275;51.912;4.388;2023-11-19T15:26:00;100667.56;;;19.33;49.35
21547;BME280;41275;51.912;4.388;2023-11-19T15:31:24;100663.56;;;19.31;49.51
21547;BME280;41275;51.912;4.388;2023-11-19T15:36:46;100659.88;;;19.27;49.63
21547;BME280;41275;51.912;4.388;2023-11-19T15:42:07;100670.28;;;19.09;49.94
21547;BME280;41275;51.912;4.388;2023-11-19T15:47:31;100662.63;;;18.98;50.51
21547;BME280;41275;51.912;4.388;2023-11-19T15:52:52;100676.41;;;18.91;50.88
21547;BME280;41275;51.912;4.388;2023-11-19T15:58:13;100672.69;;;18.87;50.87
21547;BME280;41275;51.912;4.388;2023-11-19T16:03:34;100666.56;;;18.81;51.35
21547;BME280;41275;51.912;4.388;2023-11-19T16:08:56;100656.28;;;18.64;51.56
21547;BME280;41275;51.912;4.388;2023-11-19T16:14:17;100658.94;;;18.40;52.07
21547;BME280;41275;51.912;4.388;2023-11-19T16:19:39;100659.38;;;18.19;52.80
21547;BME280;41275;51.912;4.388;2023-11-19T16:25:01;100661.63;;;18.06;53.55
21547;BME280;41275;51.912;4.388;2023-11-19T16:30:23;100660.09;;;17.95;53.94
21547;BME280;41275;51.912;4.388;2023-11-19T16:35:45;100647.00;;;17.94;54.31
21547;BME280;41275;51.912;4.388;2023-11-19T16:41:06;100653.63;;;18.01;54.78
21547;BME280;41275;51.912;4.388;2023-11-19T16:46:27;100675.13;;;17.91;54.89
21547;BME280;41275;51.912;4.388;2023-11-19T16:51:50;100656.47;;;17.81;55.41
21547;BME280;41275;51.912;4.388;2023-11-19T16:57:16;100657.28;;;17.76;56.15
21547;BME280;41275;51.912;4.388;2023-11-19T17:02:39;100649.53;;;17.75;56.07
21547;BME280;41275;51.912;4.388;2023-11-19T17:08:03;100660.75;;;17.82;56.26
21547;BME280;41275;51.912;4.388;2023-11-19T17:13:24;100656.66;;;17.89;56.37
21547;BME280;41275;51.912;4.388;2023-11-19T17:18:45;100667.88;;;17.97;56.83
21547;BME280;41275;51.912;4.388;2023-11-19T17:24:07;100652.56;;;18.02;56.90
21547;BME280;41275;51.912;4.388;2023-11-19T17:29:30;100640.25;;;18.01;56.97
21547;BME280;41275;51.912;4.388;2023-11-19T17:34:51;100636.34;;;18.18;57.14
21547;BME280;41275;51.912;4.388;2023-11-19T17:40:13;100654.22;;;18.27;57.33
21547;BME280;41275;51.912;4.388;2023-11-19T17:45:37;100627.88;;;18.34;56.92
21547;BME280;41275;51.912;4.388;2023-11-19T17:51:00;100638.72;;;18.24;57.04
21547;BME280;41275;51.912;4.388;2023-11-19T17:56:22;100650.72;;;18.32;57.59
21547;BME280;41275;51.912;4.388;2023-11-19T18:01:43;100646.09;;;18.37;57.43
21547;BME280;41275;51.912;4.388;2023-11-19T18:07:04;100651.25;;;18.29;57.47
21547;BME280;41275;51.912;4.388;2023-11-19T18:12:25;100647.25;;;18.26;57.88
21547;BME280;41275;51.912;4.388;2023-11-19T18:17:49;100647.25;;;18.26;57.80
21547;BME280;41275;51.912;4.388;2023-11-19T18:23:10;100653.16;;;18.28;57.91
21547;BME280;41275;51.912;4.388;2023-11-19T18:28:31;100652.59;;;18.31;58.19
21547;BME280;41275;51.912;4.388;2023-11-19T18:33:53;100636.13;;;18.43;57.96
21547;BME280;41275;51.912;4.388;2023-11-19T18:39:14;100638.47;;;18.50;57.97
21547;BME280;41275;51.912;4.388;2023-11-19T18:44:36;100654.78;;;18.53;58.08
21547;BME280;41275;51.912;4.388;2023-11-19T18:49:57;100653.66;;;18.59;58.10
21547;BME280;41275;51.912;4.388;2023-11-19T18:55:19;100660.31;;;18.62;57.96
21547;BME280;41275;51.912;4.388;2023-11-19T19:00:40;100649.31;;;18.63;57.79
21547;BME280;41275;51.912;4.388;2023-11-19T19:06:04;100644.97;;;18.73;57.32
21547;BME280;41275;51.912;4.388;2023-11-19T19:11:27;100646.94;;;18.86;56.77
21547;BME280;41275;51.912;4.388;2023-11-19T19:16:48;100650.38;;;18.92;56.46
21547;BME280;41275;51.912;4.388;2023-11-19T19:22:12;100660.78;;;18.98;56.32
21547;BME280;41275;51.912;4.388;2023-11-19T19:27:39;100660.19;;;19.01;56.04
21547;BME280;41275;51.912;4.388;2023-11-19T19:33:04;100637.06;;;19.05;55.40
21547;BME280;41275;51.912;4.388;2023-11-19T19:38:25;100652.34;;;19.05;55.03
21547;BME280;41275;51.912;4.388;2023-11-19T19:43:47;100665.50;;;19.06;54.87
21547;BME280;41275;51.912;4.388;2023-11-19T19:49:08;100648.31;;;19.07;54.73
21547;BME280;41275;51.912;4.388;2023-11-19T19:54:29;100654.25;;;19.04;54.74
21547;BME280;41275;51.912;4.388;2023-11-19T19:59:53;100665.78;;;19.05;54.55
21547;BME280;41275;51.912;4.388;2023-11-19T20:05:14;100676.25;;;19.01;54.72
21547;BME280;41275;51.912;4.388;2023-11-19T20:10:35;100662.81;;;19.06;54.55
21547;BME280;41275;51.912;4.388;2023-11-19T20:15:57;100678.53;;;19.13;54.51
21547;BME280;41275;51.912;4.388;2023-11-19T20:21:19;100675.59;;;19.15;54.39
21547;BME280;41275;51.912;4.388;2023-11-19T20:26:40;100679.56;;;19.17;54.50
21547;BME280;41275;51.912;4.388;2023-11-19T20:32:01;100676.63;;;19.19;54.18
21547;BME280;41275;51.912;4.388;2023-11-19T20:37:23;100683.88;;;19.18;54.00
21547;BME280;41275;51.912;4.388;2023-11-19T20:42:44;100683.56;;;19.20;54.07
21547;BME280;41275;51.912;4.388;2023-11-19T20:48:05;100687.84;;;19.21;53.90
21547;BME280;41275;51.912;4.388;2023-11-19T20:53:26;100693.22;;;19.21;53.79
21547;BME280;41275;51.912;4.388;2023-11-19T20:58:48;100692.72;;;19.19;53.59
21547;BME280;41275;51.912;4.388;2023-11-19T21:04:09;100695.88;;;19.21;53.69
21547;BME280;41275;51.912;4.388;2023-11-19T21:09:30;100716.28;;;19.22;53.61
21547;BME280;41275;51.912;4.388;2023-11-19T21:14:51;100703.72;;;19.17;53.26
21547;BME280;41275;51.912;4.388;2023-11-19T21:20:13;100700.69;;;19.24;53.46
21547;BME280;41275;51.912;4.388;2023-11-19T21:25:34;100707.94;;;19.23;53.19
21547;BME280;41275;51.912;4.388;2023-11-19T21:30:56;100708.72;;;19.24;52.98
21547;BME280;41275;51.912;4.388;2023-11-19T21:36:18;100714.63;;;19.26;52.98
21547;BME280;41275;51.912;4.388;2023-11-19T21:41:40;100723.50;;;19.21;53.04
21547;BME280;41275;51.912;4.388;2023-11-19T21:47:01;100718.97;;;19.22;52.93
21547;BME280;41275;51.912;4.388;2023-11-19T21:52:23;100715.19;;;19.23;52.98
21547;BME280;41275;51.912;4.388;2023-11-19T21:57:46;100704.72;;;19.21;52.57
21547;BME280;41275;51.912;4.388;2023-11-19T22:03:08;100716.56;;;19.20;52.57
21547;BME280;41275;51.912;4.388;2023-11-19T22:08:29;100724.59;;;19.20;52.48
21547;BME280;41275;51.912;4.388;2023-11-19T22:13:51;100726.50;;;19.20;52.47
21547;BME280;41275;51.912;4.388;2023-11-19T22:19:12;100718.75;;;19.18;52.16
21547;BME280;41275;51.912;4.388;2023-11-19T22:24:33;100739.91;;;19.20;51.92
21547;BME280;41275;51.912;4.388;2023-11-19T22:29:55;100732.66;;;19.20;52.05
21547;BME280;41275;51.912;4.388;2023-11-19T22:35:16;100724.09;;;19.18;51.86
21547;BME280;41275;51.912;4.388;2023-11-19T22:40:38;100737.22;;;19.20;51.75
21547;BME280;41275;51.912;4.388;2023-11-19T22:45:59;100743.94;;;19.17;51.58
21547;BME280;41275;51.912;4.388;2023-11-19T22:51:20;100754.09;;;19.20;51.62
21547;BME280;41275;51.912;4.388;2023-11-19T22:56:42;100749.31;;;19.17;51.17
21547;BME280;41275;51.912;4.388;2023-11-19T23:02:03;100751.50;;;19.15;51.34
21547;BME280;41275;51.912;4.388;2023-11-19T23:07:24;100756.06;;;19.15;51.40
21547;BME280;41275;51.912;4.388;2023-11-19T23:12:46;100755.53;;;19.12;51.17
21547;BME280;41275;51.912;4.388;2023-11-19T23:18:07;100770.53;;;19.13;51.09
21547;BME280;41275;51.912;4.388;2023-11-19T23:23:28;100766.25;;;19.12;51.33
21547;BME280;41275;51.912;4.388;2023-11-19T23:28:49;100761.44;;;19.15;51.12
21547;BME280;41275;51.912;4.388;2023-11-19T23:34:37;100767.91;;;19.08;51.15
21547;BME280;41275;51.912;4.388;2023-11-19T23:39:59;100770.09;;;19.06;50.95
21547;BME280;41275;51.912;4.388;2023-11-19T23:45:22;100787.25;;;19.05;51.11
21547;BME280;41275;51.912;4.388;2023-11-19T23:50:43;100782.47;;;19.02;51.25
21547;BME280;41275;51.912;4.388;2023-11-19T23:56:05;100780.34;;;18.99;51.12
